^^
Saratoga-Weather Station Historical Data
 
Daily Summary for June 19, 2019 Units:  Metric    English   Both

Notice: Undefined index: PHPSELF in C:\OpenGrADS\Contents\tmp\WU-History-inc.php on line 388
Daily Weekly Monthly Yearly Custom
  Current: High: Low: Average:
Temperature: 17.8 °C 19.4 °C 17.8 °C 18.4 °C
Dew Point: 15.6 °C 15.9 °C 15.4 °C 15.8 °C
Humidity: 87% 88% 78% 85%
Wind Speed: 9.3km/h 14.8km/h 7.4km/h 11.1km/h
Wind Gust: 9.3km/h 14.8km/h - -
WindESE - - East
Pressure: 1006.6 hPa 1009.8 hPa 1006.6 hPa -
Precipitation: 0.0 mm      
Historical Graphs
 
 
Tabular Data for June 19, 2019
Time Temperature Dew Point Pressure Wind Wind Speed Wind Gust Humidity Rainfall Rate (Hourly) solar
00:04 19.4 °C 15.5 °C 1009.8 hPa ENE 14.8 km/h 14.8 km/h 78% 0.0 mm 0.00 W/m2
00:09 19.4 °C 15.4 °C 1009.8 hPa ENE 14.8 km/h 14.8 km/h 78% 0.0 mm 0.00 W/m2
00:14 19.3 °C 15.6 °C 1009.8 hPa ENE 14.8 km/h 14.8 km/h 79% 0.0 mm 0.00 W/m2
00:19 19.3 °C 15.6 °C 1009.7 hPa ENE 14.8 km/h 14.8 km/h 79% 0.0 mm 0.00 W/m2
00:24 19.3 °C 15.6 °C 1009.7 hPa ENE 14.8 km/h 14.8 km/h 79% 0.0 mm 0.00 W/m2
00:29 19.3 °C 15.6 °C 1009.7 hPa ENE 14.8 km/h 14.8 km/h 79% 0.0 mm 0.00 W/m2
00:34 19.3 °C 15.6 °C 1009.6 hPa ENE 14.8 km/h 14.8 km/h 79% 0.0 mm 0.00 W/m2
00:39 19.2 °C 15.7 °C 1009.5 hPa ENE 14.8 km/h 14.8 km/h 80% 0.0 mm 0.00 W/m2
00:44 19.2 °C 15.7 °C 1009.5 hPa ENE 14.8 km/h 14.8 km/h 80% 0.0 mm 0.00 W/m2
00:49 19.2 °C 15.6 °C 1009.5 hPa ENE 14.8 km/h 14.8 km/h 80% 0.0 mm 0.00 W/m2
00:54 19.1 °C 15.8 °C 1009.5 hPa ENE 14.8 km/h 14.8 km/h 81% 0.0 mm 0.00 W/m2
00:59 19.1 °C 15.7 °C 1009.4 hPa ENE 14.8 km/h 14.8 km/h 81% 0.0 mm 0.00 W/m2
01:04 19.0 °C 15.7 °C 1009.3 hPa ENE 11.1 km/h 11.1 km/h 81% 0.0 mm 0.00 W/m2
01:09 18.9 °C 15.6 °C 1009.3 hPa ENE 11.1 km/h 11.1 km/h 81% 0.0 mm 0.00 W/m2
01:14 18.9 °C 15.7 °C 1009.1 hPa ENE 11.1 km/h 11.1 km/h 82% 0.0 mm 0.00 W/m2
01:19 18.8 °C 15.7 °C 1009.1 hPa ENE 11.1 km/h 11.1 km/h 82% 0.0 mm 0.00 W/m2
01:24 18.8 °C 15.8 °C 1009.0 hPa ENE 11.1 km/h 11.1 km/h 83% 0.0 mm 0.00 W/m2
01:29 18.8 °C 15.8 °C 1009.0 hPa ENE 11.1 km/h 11.1 km/h 83% 0.0 mm 0.00 W/m2
01:34 18.7 °C 15.8 °C 1008.9 hPa ENE 9.3 km/h 9.3 km/h 83% 0.0 mm 0.00 W/m2
01:39 18.7 °C 15.7 °C 1008.9 hPa ENE 9.3 km/h 9.3 km/h 83% 0.0 mm 0.00 W/m2
01:44 18.6 °C 15.8 °C 1008.7 hPa ENE 9.3 km/h 9.3 km/h 84% 0.0 mm 0.00 W/m2
01:49 18.6 °C 15.8 °C 1008.6 hPa ENE 9.3 km/h 9.3 km/h 84% 0.0 mm 0.00 W/m2
01:54 18.6 °C 15.8 °C 1008.6 hPa ENE 9.3 km/h 9.3 km/h 84% 0.0 mm 0.00 W/m2
01:59 18.6 °C 15.8 °C 1008.6 hPa ENE 9.3 km/h 9.3 km/h 84% 0.0 mm 0.00 W/m2
02:04 18.5 °C 15.9 °C 1008.6 hPa East 13.0 km/h 13.0 km/h 85% 0.0 mm 0.00 W/m2
02:09 18.5 °C 15.9 °C 1008.6 hPa East 13.0 km/h 13.0 km/h 85% 0.0 mm 0.00 W/m2
02:14 18.4 °C 15.9 °C 1008.5 hPa East 13.0 km/h 13.0 km/h 85% 0.0 mm 0.00 W/m2
02:19 18.4 °C 15.9 °C 1008.6 hPa East 13.0 km/h 13.0 km/h 85% 0.0 mm 0.00 W/m2
02:24 18.4 °C 15.8 °C 1008.5 hPa East 13.0 km/h 13.0 km/h 85% 0.0 mm 0.00 W/m2
02:29 18.4 °C 15.8 °C 1008.5 hPa East 13.0 km/h 13.0 km/h 85% 0.0 mm 0.00 W/m2
02:34 18.3 °C 15.9 °C 1008.4 hPa East 11.1 km/h 11.1 km/h 86% 0.0 mm 0.00 W/m2
02:39 18.3 °C 15.9 °C 1008.5 hPa East 11.1 km/h 11.1 km/h 86% 0.0 mm 0.00 W/m2
02:44 18.3 °C 15.9 °C 1008.4 hPa East 11.1 km/h 11.1 km/h 86% 0.0 mm 0.00 W/m2
02:49 18.3 °C 15.9 °C 1008.4 hPa East 11.1 km/h 11.1 km/h 86% 0.0 mm 0.00 W/m2
02:54 18.3 °C 15.9 °C 1008.3 hPa East 11.1 km/h 11.1 km/h 86% 0.0 mm 0.00 W/m2
02:59 18.3 °C 15.9 °C 1008.1 hPa East 11.1 km/h 11.1 km/h 86% 0.0 mm 0.00 W/m2
03:04 18.2 °C 15.8 °C 1008.0 hPa ENE 7.4 km/h 7.4 km/h 86% 0.0 mm 0.00 W/m2
03:09 18.2 °C 15.8 °C 1007.8 hPa ENE 7.4 km/h 7.4 km/h 86% 0.0 mm 0.00 W/m2
03:14 18.2 °C 15.8 °C 1007.6 hPa ENE 7.4 km/h 7.4 km/h 86% 0.0 mm 0.00 W/m2
03:19 18.2 °C 15.9 °C 1007.6 hPa ENE 7.4 km/h 7.4 km/h 87% 0.0 mm 0.00 W/m2
03:24 18.1 °C 15.9 °C 1007.7 hPa ENE 7.4 km/h 7.4 km/h 87% 0.0 mm 0.00 W/m2
03:29 18.1 °C 15.8 °C 1007.8 hPa ENE 7.4 km/h 7.4 km/h 87% 0.0 mm 0.00 W/m2
03:34 18.0 °C 15.8 °C 1007.5 hPa East 13.0 km/h 13.0 km/h 87% 0.0 mm 0.00 W/m2
03:39 18.0 °C 15.8 °C 1007.4 hPa East 13.0 km/h 13.0 km/h 87% 0.0 mm 0.00 W/m2
03:44 17.9 °C 15.7 °C 1007.4 hPa East 13.0 km/h 13.0 km/h 87% 0.0 mm 0.00 W/m2
03:49 17.9 °C 15.7 °C 1007.3 hPa East 13.0 km/h 13.0 km/h 87% 0.0 mm 0.00 W/m2
03:54 17.8 °C 15.7 °C 1007.3 hPa East 13.0 km/h 13.0 km/h 87% 0.0 mm 0.00 W/m2
03:59 17.8 °C 15.7 °C 1007.2 hPa East 13.0 km/h 13.0 km/h 87% 0.0 mm 0.00 W/m2
04:04 17.8 °C 15.8 °C 1007.2 hPa East 7.4 km/h 7.4 km/h 88% 0.0 mm 0.00 W/m2
04:09 17.8 °C 15.8 °C 1007.2 hPa East 7.4 km/h 7.4 km/h 88% 0.0 mm 0.00 W/m2
04:14 17.8 °C 15.8 °C 1007.2 hPa East 7.4 km/h 7.4 km/h 88% 0.0 mm 0.00 W/m2
04:19 17.8 °C 15.8 °C 1007.1 hPa East 7.4 km/h 7.4 km/h 88% 0.0 mm 0.00 W/m2
04:24 17.8 °C 15.8 °C 1007.0 hPa East 7.4 km/h 7.4 km/h 88% 0.0 mm 0.00 W/m2
04:29 17.8 °C 15.8 °C 1006.9 hPa East 7.4 km/h 7.4 km/h 88% 0.0 mm 0.00 W/m2
04:34 17.8 °C 15.8 °C 1006.9 hPa East 9.3 km/h 9.3 km/h 88% 0.0 mm 0.00 W/m2
04:39 17.8 °C 15.8 °C 1006.9 hPa East 9.3 km/h 9.3 km/h 88% 0.0 mm 0.00 W/m2
04:44 17.8 °C 15.8 °C 1006.8 hPa East 9.3 km/h 9.3 km/h 88% 0.0 mm 0.00 W/m2
04:49 17.8 °C 15.7 °C 1006.8 hPa East 9.3 km/h 9.3 km/h 87% 0.0 mm 0.00 W/m2
04:54 17.8 °C 15.7 °C 1006.7 hPa East 9.3 km/h 9.3 km/h 87% 0.0 mm 0.00 W/m2
04:59 17.8 °C 15.7 °C 1006.6 hPa East 9.3 km/h 9.3 km/h 87% 0.0 mm 0.00 W/m2
05:04 17.8 °C 15.6 °C 1006.6 hPa ESE 9.3 km/h 9.3 km/h 87% 0.0 mm 0.00 W/m2
Weerstation Beverwaard NL
Compliments of Weather Underground - 2 mb